sensor_id;sensor_type;location;lat;lon;timestamp;pressure;altitude;pressure_sealevel;temperature;humidity
42887;BME280;29032;56.028;92.904;2023-07-08T00:04:32;98499.06;;;22.44;57.28
42887;BME280;29032;56.028;92.904;2023-07-08T00:09:36;98493.84;;;22.52;57.54
42887;BME280;29032;56.028;92.904;2023-07-08T00:14:38;98478.25;;;22.51;57.49
42887;BME280;29032;56.028;92.904;2023-07-08T00:19:40;98477.28;;;22.60;57.57
42887;BME280;29032;56.028;92.904;2023-07-08T00:24:44;98480.16;;;22.74;57.13
42887;BME280;29032;56.028;92.904;2023-07-08T00:29:46;98473.25;;;22.77;56.54
42887;BME280;29032;56.028;92.904;2023-07-08T00:34:48;98479.81;;;22.81;56.50
42887;BME280;29032;56.028;92.904;2023-07-08T00:39:51;98493.75;;;22.91;56.64
42887;BME280;29032;56.028;92.904;2023-07-08T00:44:55;98492.59;;;22.96;56.85
42887;BME280;29032;56.028;92.904;2023-07-08T00:50:00;98482.50;;;23.07;56.54
42887;BME280;29032;56.028;92.904;2023-07-08T00:55:08;98485.66;;;23.13;57.02
42887;BME280;29032;56.028;92.904;2023-07-08T01:00:13;98472.97;;;23.14;56.86
42887;BME280;29032;56.028;92.904;2023-07-08T01:05:18;98465.19;;;23.15;57.44
42887;BME280;29032;56.028;92.904;2023-07-08T01:10:26;98457.94;;;23.25;56.69
42887;BME280;29032;56.028;92.904;2023-07-08T01:15:33;98464.63;;;23.32;56.76
42887;BME280;29032;56.028;92.904;2023-07-08T01:20:37;98458.13;;;23.29;57.34
42887;BME280;29032;56.028;92.904;2023-07-08T01:25:43;98455.63;;;23.35;56.41
42887;BME280;29032;56.028;92.904;2023-07-08T01:30:46;98451.22;;;23.32;56.93
42887;BME280;29032;56.028;92.904;2023-07-08T01:35:51;98444.50;;;23.40;56.83
42887;BME280;29032;56.028;92.904;2023-07-08T01:40:56;98440.88;;;23.53;57.28
42887;BME280;29032;56.028;92.904;2023-07-08T01:46:00;98449.84;;;23.63;57.14
42887;BME280;29032;56.028;92.904;2023-07-08T01:51:05;98464.47;;;23.73;56.55
42887;BME280;29032;56.028;92.904;2023-07-08T01:56:09;98461.53;;;23.71;56.92
42887;BME280;29032;56.028;92.904;2023-07-08T02:01:12;98463.22;;;23.76;56.76
42887;BME280;29032;56.028;92.904;2023-07-08T02:06:15;98462.03;;;23.81;56.58
42887;BME280;29032;56.028;92.904;2023-07-08T02:11:18;98460.81;;;23.86;56.84
42887;BME280;29032;56.028;92.904;2023-07-08T02:16:20;98458.19;;;23.90;56.26
42887;BME280;29032;56.028;92.904;2023-07-08T02:21:23;98444.38;;;23.99;56.65
42887;BME280;29032;56.028;92.904;2023-07-08T02:26:26;98441.94;;;24.07;56.42
42887;BME280;29032;56.028;92.904;2023-07-08T02:31:28;98449.81;;;24.08;56.09
42887;BME280;29032;56.028;92.904;2023-07-08T02:36:30;98442.59;;;24.05;56.03
42887;BME280;29032;56.028;92.904;2023-07-08T02:41:34;98446.44;;;24.12;56.07
42887;BME280;29032;56.028;92.904;2023-07-08T02:46:36;98446.34;;;24.10;56.33
42887;BME280;29032;56.028;92.904;2023-07-08T02:51:38;98442.59;;;24.21;56.15
42887;BME280;29032;56.028;92.904;2023-07-08T02:56:41;98448.22;;;24.37;55.57
42887;BME280;29032;56.028;92.904;2023-07-08T03:01:43;98445.94;;;24.49;55.30
42887;BME280;29032;56.028;92.904;2023-07-08T03:06:46;98462.84;;;24.63;55.31
42887;BME280;29032;56.028;92.904;2023-07-08T03:11:49;98460.09;;;24.81;54.54
42887;BME280;29032;56.028;92.904;2023-07-08T03:16:51;98463.81;;;24.85;55.00
42887;BME280;29032;56.028;92.904;2023-07-08T03:21:53;98456.19;;;24.90;55.65
42887;BME280;29032;56.028;92.904;2023-07-08T03:26:57;98458.31;;;25.07;55.27
42887;BME280;29032;56.028;92.904;2023-07-08T03:32:00;98466.38;;;25.13;55.16
42887;BME280;29032;56.028;92.904;2023-07-08T03:37:02;98459.41;;;25.16;54.99
42887;BME280;29032;56.028;92.904;2023-07-08T03:42:06;98466.69;;;25.21;54.82
42887;BME280;29032;56.028;92.904;2023-07-08T03:47:09;98470.91;;;25.20;55.05
42887;BME280;29032;56.028;92.904;2023-07-08T03:52:15;98473.28;;;25.25;55.43
42887;BME280;29032;56.028;92.904;2023-07-08T03:57:19;98481.00;;;25.23;54.95
42887;BME280;29032;56.028;92.904;2023-07-08T04:02:22;98489.31;;;25.52;54.38
42887;BME280;29032;56.028;92.904;2023-07-08T04:07:24;98491.22;;;25.30;55.94
42887;BME280;29032;56.028;92.904;2023-07-08T04:12:28;98502.91;;;25.38;52.48
42887;BME280;29032;56.028;92.904;2023-07-08T04:17:31;98495.50;;;25.31;52.14
42887;BME280;29032;56.028;92.904;2023-07-08T04:22:33;98507.53;;;25.29;50.60
42887;BME280;29032;56.028;92.904;2023-07-08T04:27:36;98503.97;;;25.29;51.06
42887;BME280;29032;56.028;92.904;2023-07-08T04:32:38;98509.63;;;25.29;51.06
42887;BME280;29032;56.028;92.904;2023-07-08T04:37:40;98500.97;;;25.43;50.73
42887;BME280;29032;56.028;92.904;2023-07-08T04:42:44;98505.03;;;25.55;50.13
42887;BME280;29032;56.028;92.904;2023-07-08T04:47:46;98510.88;;;25.60;49.42
42887;BME280;29032;56.028;92.904;2023-07-08T04:52:48;98499.13;;;25.67;48.82
42887;BME280;29032;56.028;92.904;2023-07-08T04:57:51;98507.28;;;25.77;48.70
42887;BME280;29032;56.028;92.904;2023-07-08T05:02:53;98505.09;;;25.75;48.81
42887;BME280;29032;56.028;92.904;2023-07-08T05:07:56;98506.72;;;25.80;48.83
42887;BME280;29032;56.028;92.904;2023-07-08T05:13:00;98512.06;;;25.90;48.74
42887;BME280;29032;56.028;92.904;2023-07-08T05:18:02;98529.06;;;25.88;48.63
42887;BME280;29032;56.028;92.904;2023-07-08T05:23:04;98541.88;;;25.89;48.48
42887;BME280;29032;56.028;92.904;2023-07-08T05:28:07;98547.56;;;25.89;48.08
42887;BME280;29032;56.028;92.904;2023-07-08T05:33:09;98550.91;;;25.83;48.14
42887;BME280;29032;56.028;92.904;2023-07-08T05:38:11;98547.41;;;25.85;48.05
42887;BME280;29032;56.028;92.904;2023-07-08T05:43:15;98549.84;;;25.93;47.73
42887;BME280;29032;56.028;92.904;2023-07-08T05:48:17;98541.72;;;25.85;47.57
42887;BME280;29032;56.028;92.904;2023-07-08T05:53:19;98531.81;;;25.86;48.05
42887;BME280;29032;56.028;92.904;2023-07-08T05:58:23;98527.59;;;25.87;47.33
42887;BME280;29032;56.028;92.904;2023-07-08T06:03:25;98518.97;;;25.85;47.56
42887;BME280;29032;56.028;92.904;2023-07-08T06:08:27;98529.78;;;25.89;47.59
42887;BME280;29032;56.028;92.904;2023-07-08T06:13:31;98529.19;;;25.92;47.33
42887;BME280;29032;56.028;92.904;2023-07-08T06:18:33;98526.88;;;25.87;47.55
42887;BME280;29032;56.028;92.904;2023-07-08T06:23:35;98531.00;;;25.83;47.83
42887;BME280;29032;56.028;92.904;2023-07-08T06:28:39;98535.72;;;25.77;48.93
42887;BME280;29032;56.028;92.904;2023-07-08T06:33:42;98535.56;;;25.73;47.97
42887;BME280;29032;56.028;92.904;2023-07-08T06:38:44;98537.44;;;25.66;48.23
42887;BME280;29032;56.028;92.904;2023-07-08T06:43:47;98538.09;;;25.65;48.10
42887;BME280;29032;56.028;92.904;2023-07-08T06:48:51;98549.03;;;25.54;47.78
42887;BME280;29032;56.028;92.904;2023-07-08T06:53:54;98551.53;;;25.46;48.75
42887;BME280;29032;56.028;92.904;2023-07-08T06:58:57;98547.31;;;25.47;48.86
42887;BME280;29032;56.028;92.904;2023-07-08T07:03:59;98566.66;;;25.35;48.67
42887;BME280;29032;56.028;92.904;2023-07-08T07:09:01;98569.75;;;25.23;50.15
42887;BME280;29032;56.028;92.904;2023-07-08T07:14:05;98563.22;;;25.21;50.06
42887;BME280;29032;56.028;92.904;2023-07-08T07:19:07;98564.19;;;25.10;50.58
42887;BME280;29032;56.028;92.904;2023-07-08T07:24:09;98552.50;;;25.01;50.37
42887;BME280;29032;56.028;92.904;2023-07-08T07:29:15;98547.69;;;25.06;50.00
42887;BME280;29032;56.028;92.904;2023-07-08T07:34:18;98541.75;;;25.00;49.96
42887;BME280;29032;56.028;92.904;2023-07-08T07:39:20;98538.75;;;24.96;50.42
42887;BME280;29032;56.028;92.904;2023-07-08T07:44:23;98543.44;;;24.89;52.14
42887;BME280;29032;56.028;92.904;2023-07-08T07:49:26;98530.38;;;24.82;51.95
42887;BME280;29032;56.028;92.904;2023-07-08T07:54:28;98506.03;;;24.77;51.17
42887;BME280;29032;56.028;92.904;2023-07-08T07:59:32;98506.22;;;24.81;51.54
42887;BME280;29032;56.028;92.904;2023-07-08T08:04:34;98503.25;;;24.79;50.96
42887;BME280;29032;56.028;92.904;2023-07-08T08:09:36;98493.41;;;24.80;51.13
42887;BME280;29032;56.028;92.904;2023-07-08T08:14:40;98491.38;;;24.83;50.58
42887;BME280;29032;56.028;92.904;2023-07-08T08:19:42;98484.97;;;24.82;50.00
42887;BME280;29032;56.028;92.904;2023-07-08T08:24:44;98479.22;;;24.80;51.58
42887;BME280;29032;56.028;92.904;2023-07-08T08:29:47;98471.03;;;24.88;50.33
42887;BME280;29032;56.028;92.904;2023-07-08T08:34:50;98475.81;;;24.84;51.25
42887;BME280;29032;56.028;92.904;2023-07-08T08:39:52;98475.00;;;24.81;50.20
42887;BME280;29032;56.028;92.904;2023-07-08T08:44:56;98471.97;;;24.77;52.47
42887;BME280;29032;56.028;92.904;2023-07-08T08:50:03;98475.91;;;24.70;54.94
42887;BME280;29032;56.028;92.904;2023-07-08T08:55:11;98475.09;;;24.67;55.33
42887;BME280;29032;56.028;92.904;2023-07-08T09:00:18;98464.03;;;24.58;55.40
42887;BME280;29032;56.028;92.904;2023-07-08T09:05:25;98465.13;;;24.51;53.98
42887;BME280;29032;56.028;92.904;2023-07-08T09:10:39;98459.00;;;24.56;55.06
42887;BME280;29032;56.028;92.904;2023-07-08T09:15:46;98459.56;;;24.53;52.79
42887;BME280;29032;56.028;92.904;2023-07-08T09:20:48;98458.72;;;24.50;52.34
42887;BME280;29032;56.028;92.904;2023-07-08T09:25:56;98466.84;;;24.58;52.43
42887;BME280;29032;56.028;92.904;2023-07-08T09:31:02;98462.19;;;24.64;51.61
42887;BME280;29032;56.028;92.904;2023-07-08T09:36:18;98470.13;;;24.84;51.29
42887;BME280;29032;56.028;92.904;2023-07-08T09:41:31;98458.81;;;25.19;50.82
42887;BME280;29032;56.028;92.904;2023-07-08T09:46:38;98464.28;;;25.67;49.79
42887;BME280;29032;56.028;92.904;2023-07-08T09:51:40;98452.38;;;25.90;48.28
42887;BME280;29032;56.028;92.904;2023-07-08T09:56:50;98452.28;;;26.06;48.88
42887;BME280;29032;56.028;92.904;2023-07-08T10:01:56;98441.78;;;26.10;50.16
42887;BME280;29032;56.028;92.904;2023-07-08T10:06:59;98440.09;;;26.03;50.06
42887;BME280;29032;56.028;92.904;2023-07-08T10:12:03;98439.84;;;25.97;50.18
42887;BME280;29032;56.028;92.904;2023-07-08T10:17:09;98441.66;;;26.06;50.69
42887;BME280;29032;56.028;92.904;2023-07-08T10:22:28;98430.59;;;26.15;50.68
42887;BME280;29032;56.028;92.904;2023-07-08T10:27:40;98435.00;;;26.20;50.95
42887;BME280;29032;56.028;92.904;2023-07-08T10:33:14;98440.19;;;26.45;50.35
42887;BME280;29032;56.028;92.904;2023-07-08T10:38:34;98434.00;;;26.51;50.24
42887;BME280;29032;56.028;92.904;2023-07-08T10:43:51;98429.81;;;26.54;49.95
42887;BME280;29032;56.028;92.904;2023-07-08T10:49:05;98412.09;;;26.55;50.73
42887;BME280;29032;56.028;92.904;2023-07-08T10:54:24;98411.97;;;26.71;50.48
42887;BME280;29032;56.028;92.904;2023-07-08T10:59:41;98403.44;;;26.71;50.69
42887;BME280;29032;56.028;92.904;2023-07-08T11:04:58;98392.78;;;26.72;50.00
42887;BME280;29032;56.028;92.904;2023-07-08T11:10:10;98385.44;;;26.67;52.41
42887;BME280;29032;56.028;92.904;2023-07-08T11:15:17;98390.72;;;26.74;51.43
42887;BME280;29032;56.028;92.904;2023-07-08T11:20:24;98390.78;;;26.76;49.90
42887;BME280;29032;56.028;92.904;2023-07-08T11:25:31;98387.28;;;26.78;50.32
42887;BME280;29032;56.028;92.904;2023-07-08T11:30:34;98391.69;;;26.83;50.57
42887;BME280;29032;56.028;92.904;2023-07-08T11:35:42;98390.50;;;26.90;51.10
42887;BME280;29032;56.028;92.904;2023-07-08T11:41:04;98389.94;;;26.94;50.42
42887;BME280;29032;56.028;92.904;2023-07-08T11:46:07;98397.75;;;26.71;50.75
42887;BME280;29032;56.028;92.904;2023-07-08T11:51:17;98403.50;;;26.73;50.28
42887;BME280;29032;56.028;92.904;2023-07-08T11:56:24;98413.13;;;26.64;50.74
42887;BME280;29032;56.028;92.904;2023-07-08T12:01:28;98407.06;;;26.54;49.18
42887;BME280;29032;56.028;92.904;2023-07-08T12:06:47;98404.00;;;26.68;48.37
42887;BME280;29032;56.028;92.904;2023-07-08T12:11:53;98402.53;;;26.67;49.59
42887;BME280;29032;56.028;92.904;2023-07-08T12:16:56;98386.63;;;26.59;50.07
42887;BME280;29032;56.028;92.904;2023-07-08T12:22:00;98390.16;;;26.58;50.16
42887;BME280;29032;56.028;92.904;2023-07-08T12:27:03;98386.56;;;26.57;47.40
42887;BME280;29032;56.028;92.904;2023-07-08T12:32:08;98390.88;;;26.58;48.00
42887;BME280;29032;56.028;92.904;2023-07-08T12:37:13;98385.31;;;26.62;48.90
42887;BME280;29032;56.028;92.904;2023-07-08T12:42:15;98379.34;;;26.54;49.75
42887;BME280;29032;56.028;92.904;2023-07-08T12:47:19;98395.09;;;26.57;49.33
42887;BME280;29032;56.028;92.904;2023-07-08T12:52:23;98387.59;;;26.46;50.23
42887;BME280;29032;56.028;92.904;2023-07-08T12:57:26;98390.00;;;26.34;50.92
42887;BME280;29032;56.028;92.904;2023-07-08T13:02:30;98388.72;;;26.37;50.39
42887;BME280;29032;56.028;92.904;2023-07-08T13:07:40;98385.66;;;26.31;50.60
42887;BME280;29032;56.028;92.904;2023-07-08T13:12:43;98375.16;;;26.16;51.21
42887;BME280;29032;56.028;92.904;2023-07-08T13:17:46;98377.34;;;26.17;51.89
42887;BME280;29032;56.028;92.904;2023-07-08T13:22:54;98371.22;;;26.25;50.39
42887;BME280;29032;56.028;92.904;2023-07-08T13:27:58;98375.03;;;26.12;50.04
42887;BME280;29032;56.028;92.904;2023-07-08T13:33:00;98385.78;;;25.95;51.08
42887;BME280;29032;56.028;92.904;2023-07-08T13:38:04;98398.59;;;25.96;51.57
42887;BME280;29032;56.028;92.904;2023-07-08T13:43:07;98401.66;;;25.82;50.53
42887;BME280;29032;56.028;92.904;2023-07-08T13:48:12;98403.53;;;25.76;50.99
42887;BME280;29032;56.028;92.904;2023-07-08T13:53:22;98397.84;;;25.76;52.02
42887;BME280;29032;56.028;92.904;2023-07-08T13:58:27;98396.03;;;25.65;52.81
42887;BME280;29032;56.028;92.904;2023-07-08T14:03:29;98403.28;;;25.88;52.26
42887;BME280;29032;56.028;92.904;2023-07-08T14:08:33;98401.47;;;25.59;52.67
42887;BME280;29032;56.028;92.904;2023-07-08T14:13:35;98413.25;;;25.51;53.19
42887;BME280;29032;56.028;92.904;2023-07-08T14:18:37;98414.00;;;25.51;53.59
42887;BME280;29032;56.028;92.904;2023-07-08T14:23:40;98413.81;;;25.47;53.13
42887;BME280;29032;56.028;92.904;2023-07-08T14:28:42;98412.59;;;25.35;54.01
42887;BME280;29032;56.028;92.904;2023-07-08T14:33:44;98414.63;;;25.32;53.51
42887;BME280;29032;56.028;92.904;2023-07-08T14:38:48;98428.75;;;25.30;53.91
42887;BME280;29032;56.028;92.904;2023-07-08T14:43:50;98418.09;;;25.13;53.98
42887;BME280;29032;56.028;92.904;2023-07-08T14:48:52;98424.66;;;24.99;54.50
42887;BME280;29032;56.028;92.904;2023-07-08T14:53:56;98431.06;;;25.00;55.23
42887;BME280;29032;56.028;92.904;2023-07-08T14:58:58;98428.72;;;24.94;55.27
42887;BME280;29032;56.028;92.904;2023-07-08T15:04:00;98438.53;;;24.91;55.40
42887;BME280;29032;56.028;92.904;2023-07-08T15:09:03;98438.44;;;24.89;55.26
42887;BME280;29032;56.028;92.904;2023-07-08T15:14:09;98434.22;;;24.90;55.13
42887;BME280;29032;56.028;92.904;2023-07-08T15:19:14;98424.41;;;24.76;56.65
42887;BME280;29032;56.028;92.904;2023-07-08T15:24:18;98426.56;;;24.77;56.36
42887;BME280;29032;56.028;92.904;2023-07-08T15:29:22;98432.34;;;24.79;55.78
42887;BME280;29032;56.028;92.904;2023-07-08T15:34:24;98433.34;;;24.70;56.14
42887;BME280;29032;56.028;92.904;2023-07-08T15:39:28;98429.97;;;24.58;58.18
42887;BME280;29032;56.028;92.904;2023-07-08T15:44:30;98428.38;;;24.53;57.14
42887;BME280;29032;56.028;92.904;2023-07-08T15:49:32;98427.38;;;24.46;57.09
42887;BME280;29032;56.028;92.904;2023-07-08T15:54:37;98429.22;;;24.39;57.09
42887;BME280;29032;56.028;92.904;2023-07-08T15:59:39;98441.31;;;24.24;57.39
42887;BME280;29032;56.028;92.904;2023-07-08T16:04:41;98438.75;;;24.30;56.54
42887;BME280;29032;56.028;92.904;2023-07-08T16:09:45;98434.31;;;24.43;56.51
42887;BME280;29032;56.028;92.904;2023-07-08T16:14:47;98447.78;;;24.42;56.40
42887;BME280;29032;56.028;92.904;2023-07-08T16:19:49;98440.72;;;24.43;56.45
42887;BME280;29032;56.028;92.904;2023-07-08T16:24:53;98448.75;;;24.49;56.42
42887;BME280;29032;56.028;92.904;2023-07-08T16:29:55;98443.47;;;24.41;57.05
42887;BME280;29032;56.028;92.904;2023-07-08T16:34:57;98444.59;;;24.34;56.86
42887;BME280;29032;56.028;92.904;2023-07-08T16:40:00;98458.59;;;24.30;57.31
42887;BME280;29032;56.028;92.904;2023-07-08T16:45:07;98461.25;;;24.26;57.00
42887;BME280;29032;56.028;92.904;2023-07-08T16:50:14;98457.94;;;24.16;57.38
42887;BME280;29032;56.028;92.904;2023-07-08T16:55:19;98459.69;;;24.23;57.05
42887;BME280;29032;56.028;92.904;2023-07-08T17:00:23;98460.59;;;24.12;58.35
42887;BME280;29032;56.028;92.904;2023-07-08T17:05:29;98471.75;;;24.08;58.33
42887;BME280;29032;56.028;92.904;2023-07-08T17:10:33;98465.75;;;23.86;58.66
42887;BME280;29032;56.028;92.904;2023-07-08T17:15:36;98470.94;;;23.60;58.97
42887;BME280;29032;56.028;92.904;2023-07-08T17:20:39;98472.25;;;23.43;59.58
42887;BME280;29032;56.028;92.904;2023-07-08T17:25:42;98468.81;;;23.31;60.03
42887;BME280;29032;56.028;92.904;2023-07-08T17:30:47;98466.88;;;23.20;60.64
42887;BME280;29032;56.028;92.904;2023-07-08T17:35:50;98458.16;;;23.16;60.41
42887;BME280;29032;56.028;92.904;2023-07-08T17:40:54;98457.44;;;23.15;61.05
42887;BME280;29032;56.028;92.904;2023-07-08T17:45:56;98452.84;;;23.08;60.99
42887;BME280;29032;56.028;92.904;2023-07-08T17:50:58;98450.66;;;23.06;60.94
42887;BME280;29032;56.028;92.904;2023-07-08T17:56:02;98460.09;;;23.11;61.34
42887;BME280;29032;56.028;92.904;2023-07-08T18:01:08;98444.75;;;23.16;61.20
42887;BME280;29032;56.028;92.904;2023-07-08T18:06:10;98446.16;;;23.01;61.20
42887;BME280;29032;56.028;92.904;2023-07-08T18:11:15;98441.03;;;22.98;61.36
42887;BME280;29032;56.028;92.904;2023-07-08T18:16:20;98450.78;;;22.95;61.09
42887;BME280;29032;56.028;92.904;2023-07-08T18:21:24;98458.03;;;22.98;61.19
42887;BME280;29032;56.028;92.904;2023-07-08T18:26:29;98451.28;;;23.05;61.06
42887;BME280;29032;56.028;92.904;2023-07-08T18:31:33;98449.94;;;23.06;60.61
42887;BME280;29032;56.028;92.904;2023-07-08T18:36:36;98453.00;;;22.96;61.14
42887;BME280;29032;56.028;92.904;2023-07-08T18:41:43;98448.34;;;23.03;61.10
42887;BME280;29032;56.028;92.904;2023-07-08T18:46:45;98456.97;;;22.91;61.05
42887;BME280;29032;56.028;92.904;2023-07-08T18:51:47;98451.66;;;22.83;61.33
42887;BME280;29032;56.028;92.904;2023-07-08T18:56:51;98465.59;;;22.79;61.68
42887;BME280;29032;56.028;92.904;2023-07-08T19:01:53;98473.25;;;22.77;60.88
42887;BME280;29032;56.028;92.904;2023-07-08T19:06:56;98484.56;;;22.77;60.97
42887;BME280;29032;56.028;92.904;2023-07-08T19:12:00;98480.34;;;22.78;61.44
42887;BME280;29032;56.028;92.904;2023-07-08T19:17:02;98470.28;;;22.75;60.98
42887;BME280;29032;56.028;92.904;2023-07-08T19:22:04;98476.50;;;22.71;61.55
42887;BME280;29032;56.028;92.904;2023-07-08T19:27:14;98467.03;;;22.80;61.15
42887;BME280;29032;56.028;92.904;2023-07-08T19:32:17;98467.69;;;22.65;60.93
42887;BME280;29032;56.028;92.904;2023-07-08T19:37:20;98471.22;;;22.52;60.96
42887;BME280;29032;56.028;92.904;2023-07-08T19:42:25;98481.16;;;22.53;61.35
42887;BME280;29032;56.028;92.904;2023-07-08T19:47:27;98470.38;;;22.36;61.67
42887;BME280;29032;56.028;92.904;2023-07-08T19:52:29;98473.84;;;22.34;61.53
42887;BME280;29032;56.028;92.904;2023-07-08T19:57:40;98475.22;;;22.47;61.46
42887;BME280;29032;56.028;92.904;2023-07-08T20:02:43;98481.69;;;22.36;61.44
42887;BME280;29032;56.028;92.904;2023-07-08T20:07:45;98482.94;;;22.33;61.60
42887;BME280;29032;56.028;92.904;2023-07-08T20:12:49;98482.00;;;22.28;61.63
42887;BME280;29032;56.028;92.904;2023-07-08T20:17:51;98486.50;;;22.19;62.15
42887;BME280;29032;56.028;92.904;2023-07-08T20:22:53;98482.31;;;22.20;61.97
42887;BME280;29032;56.028;92.904;2023-07-08T20:27:57;98478.31;;;22.25;62.02
42887;BME280;29032;56.028;92.904;2023-07-08T20:32:59;98488.88;;;22.11;62.17
42887;BME280;29032;56.028;92.904;2023-07-08T20:38:01;98484.59;;;22.10;61.65
42887;BME280;29032;56.028;92.904;2023-07-08T20:43:10;98484.91;;;22.16;61.83
42887;BME280;29032;56.028;92.904;2023-07-08T20:48:14;98482.59;;;21.99;61.89
42887;BME280;29032;56.028;92.904;2023-07-08T20:53:20;98483.28;;;21.86;62.04
42887;BME280;29032;56.028;92.904;2023-07-08T20:58:25;98501.78;;;21.89;62.00
42887;BME280;29032;56.028;92.904;2023-07-08T21:03:27;98504.16;;;21.81;61.79
42887;BME280;29032;56.028;92.904;2023-07-08T21:08:34;98502.16;;;21.83;62.05
42887;BME280;29032;56.028;92.904;2023-07-08T21:13:38;98501.63;;;21.73;62.07
42887;BME280;29032;56.028;92.904;2023-07-08T21:18:40;98504.97;;;21.69;62.09
42887;BME280;29032;56.028;92.904;2023-07-08T21:23:43;98507.91;;;21.71;61.76
42887;BME280;29032;56.028;92.904;2023-07-08T21:28:48;98535.00;;;21.77;62.03
42887;BME280;29032;56.028;92.904;2023-07-08T21:33:50;98527.88;;;21.75;61.82
42887;BME280;29032;56.028;92.904;2023-07-08T21:38:55;98539.16;;;21.75;61.75
42887;BME280;29032;56.028;92.904;2023-07-08T21:43:59;98536.34;;;21.75;61.91
42887;BME280;29032;56.028;92.904;2023-07-08T21:49:01;98535.41;;;21.71;61.91
42887;BME280;29032;56.028;92.904;2023-07-08T21:54:03;98550.97;;;21.72;62.46
42887;BME280;29032;56.028;92.904;2023-07-08T21:59:14;98548.13;;;21.84;62.18
42887;BME280;29032;56.028;92.904;2023-07-08T22:04:19;98542.13;;;21.78;62.22
42887;BME280;29032;56.028;92.904;2023-07-08T22:09:25;98535.06;;;21.65;62.33
42887;BME280;29032;56.028;92.904;2023-07-08T22:14:29;98537.53;;;21.59;63.44
42887;BME280;29032;56.028;92.904;2023-07-08T22:19:34;98530.31;;;21.56;63.19
42887;BME280;29032;56.028;92.904;2023-07-08T22:24:36;98519.75;;;21.56;63.70
42887;BME280;29032;56.028;92.904;2023-07-08T22:29:39;98531.16;;;21.58;63.60
42887;BME280;29032;56.028;92.904;2023-07-08T22:34:41;98530.81;;;21.52;63.44
42887;BME280;29032;56.028;92.904;2023-07-08T22:39:43;98530.56;;;21.48;63.66
42887;BME280;29032;56.028;92.904;2023-07-08T22:44:47;98536.44;;;21.52;63.73
42887;BME280;29032;56.028;92.904;2023-07-08T22:49:49;98540.28;;;21.45;63.58
42887;BME280;29032;56.028;92.904;2023-07-08T22:54:50;98539.94;;;21.39;63.43
42887;BME280;29032;56.028;92.904;2023-07-08T22:59:54;98532.59;;;21.34;64.00
42887;BME280;29032;56.028;92.904;2023-07-08T23:04:56;98534.94;;;21.26;64.07
42887;BME280;29032;56.028;92.904;2023-07-08T23:10:01;98539.75;;;21.23;64.14
42887;BME280;29032;56.028;92.904;2023-07-08T23:15:05;98546.47;;;21.30;64.27
42887;BME280;29032;56.028;92.904;2023-07-08T23:20:13;98553.09;;;21.34;63.85
42887;BME280;29032;56.028;92.904;2023-07-08T23:25:15;98542.03;;;21.27;63.89
42887;BME280;29032;56.028;92.904;2023-07-08T23:30:19;98555.66;;;21.30;63.84
42887;BME280;29032;56.028;92.904;2023-07-08T23:35:21;98550.28;;;21.23;63.79
42887;BME280;29032;56.028;92.904;2023-07-08T23:40:23;98564.50;;;21.25;64.09
42887;BME280;29032;56.028;92.904;2023-07-08T23:45:27;98560.06;;;21.33;65.19
42887;BME280;29032;56.028;92.904;2023-07-08T23:50:29;98553.09;;;21.34;64.04
42887;BME280;29032;56.028;92.904;2023-07-08T23:55:31;98556.66;;;21.35;64.56
